createdAt,value
2024-01-19T00:00:26.667Z,-12.46
2024-01-19T00:01:26.699Z,-12.38
2024-01-19T00:02:26.675Z,-12.39
2024-01-19T00:03:26.645Z,-12.66
2024-01-19T00:04:26.681Z,-12.99
2024-01-19T00:05:26.738Z,-13.10
2024-01-19T00:06:26.778Z,-13.27
2024-01-19T00:07:26.652Z,-13.30
2024-01-19T00:08:26.626Z,-13.32
2024-01-19T00:09:26.602Z,-13.31
2024-01-19T00:10:26.593Z,-13.35
2024-01-19T00:11:26.719Z,-13.35
2024-01-19T00:12:26.597Z,-13.20
2024-01-19T00:13:26.556Z,-13.13
2024-01-19T00:14:26.557Z,-13.16
2024-01-19T00:15:33.123Z,-13.19
2024-01-19T00:16:26.544Z,-13.16
2024-01-19T00:17:26.538Z,-13.13
2024-01-19T00:18:26.562Z,-13.13
2024-01-19T00:19:26.654Z,-13.02
2024-01-19T00:20:26.557Z,-12.93
2024-01-19T00:21:26.481Z,-12.74
2024-01-19T00:22:26.477Z,-12.59
2024-01-19T00:23:26.509Z,-12.59
2024-01-19T00:24:26.511Z,-12.63
2024-01-19T00:25:26.470Z,-12.66
2024-01-19T00:26:26.478Z,-12.59
2024-01-19T00:27:26.452Z,-12.56
2024-01-19T00:28:26.415Z,-12.51
2024-01-19T00:29:26.464Z,-12.48
2024-01-19T00:30:26.438Z,-12.50
2024-01-19T00:31:26.402Z,-12.57
2024-01-19T00:32:26.441Z,-12.59
2024-01-19T00:33:26.439Z,-12.57
2024-01-19T00:34:26.627Z,-12.66
2024-01-19T00:35:26.381Z,-12.72
2024-01-19T00:36:26.343Z,-12.90
2024-01-19T00:37:26.349Z,-12.92
2024-01-19T00:38:26.338Z,-12.95
2024-01-19T00:39:26.895Z,-12.92
2024-01-19T00:40:26.315Z,-12.84
2024-01-19T00:41:26.345Z,-12.80
2024-01-19T00:42:26.293Z,-12.98
2024-01-19T00:43:26.918Z,-13.16
2024-01-19T00:44:27.109Z,-13.32
2024-01-19T00:45:26.291Z,-13.37
2024-01-19T00:46:26.276Z,-13.38
2024-01-19T00:47:26.326Z,-13.43
2024-01-19T00:48:26.377Z,-13.55
2024-01-19T00:49:26.324Z,-13.58
2024-01-19T00:50:26.280Z,-13.88
2024-01-19T00:51:26.221Z,-14.23
2024-01-19T00:52:26.226Z,-14.26
2024-01-19T00:53:26.261Z,-14.31
2024-01-19T00:54:26.195Z,-14.54
2024-01-19T00:55:26.199Z,-14.68
2024-01-19T00:56:26.222Z,-14.76
2024-01-19T00:57:26.884Z,-14.72
2024-01-19T00:58:26.182Z,-14.54
2024-01-19T00:59:26.164Z,-14.28
2024-01-19T01:00:26.136Z,-14.16
2024-01-19T01:01:26.153Z,-14.06
2024-01-19T01:02:26.855Z,-13.94
2024-01-19T01:03:26.109Z,-13.77
2024-01-19T01:04:26.176Z,-13.59
2024-01-19T01:05:26.165Z,-13.48
2024-01-19T01:06:26.279Z,-13.43
2024-01-19T01:07:26.106Z,-13.35
2024-01-19T01:08:26.084Z,-13.30
2024-01-19T01:09:26.060Z,-13.21
2024-01-19T01:10:26.062Z,-13.13
2024-01-19T01:11:26.079Z,-13.14
2024-01-19T01:12:26.047Z,-13.41
2024-01-19T01:13:26.023Z,-13.75
2024-01-19T01:14:26.007Z,-14.13
2024-01-19T01:15:26.005Z,-14.68
2024-01-19T01:16:26.038Z,-14.81
2024-01-19T01:17:26.026Z,-15.00
2024-01-19T01:18:26.133Z,-14.90
2024-01-19T01:19:25.978Z,-14.72
2024-01-19T01:20:26.020Z,-14.52
2024-01-19T01:21:26.473Z,-14.39
2024-01-19T01:22:25.941Z,-14.05
2024-01-19T01:23:25.970Z,-13.77
2024-01-19T01:24:25.921Z,-13.55
2024-01-19T01:25:25.928Z,-13.23
2024-01-19T01:26:25.952Z,-13.31
2024-01-19T01:27:25.896Z,-13.40
2024-01-19T01:28:25.877Z,-13.43
2024-01-19T01:29:25.905Z,-13.96
2024-01-19T01:30:25.952Z,-14.12
2024-01-19T01:31:25.863Z,-14.26
2024-01-19T01:32:26.027Z,-14.51
2024-01-19T01:33:25.969Z,-14.69
2024-01-19T01:34:25.844Z,-14.70
2024-01-19T01:35:25.955Z,-14.77
2024-01-19T01:36:25.821Z,-14.72
2024-01-19T01:37:25.804Z,-14.73
2024-01-19T01:38:25.867Z,-14.76
2024-01-19T01:39:25.851Z,-14.80
2024-01-19T01:40:25.801Z,-14.83
2024-01-19T01:41:25.805Z,-14.86
2024-01-19T01:42:25.762Z,-15.01
2024-01-19T01:43:25.767Z,-15.20
2024-01-19T01:44:25.778Z,-15.38
2024-01-19T01:45:25.740Z,-15.58
2024-01-19T01:46:25.755Z,-15.59
2024-01-19T01:47:25.831Z,-15.59
2024-01-19T01:48:25.949Z,-15.44
2024-01-19T01:49:25.861Z,-15.38
2024-01-19T01:50:25.769Z,-15.24
2024-01-19T01:51:25.685Z,-15.14
2024-01-19T01:52:25.676Z,-15.10
2024-01-19T01:53:25.866Z,-15.17
2024-01-19T01:54:25.689Z,-15.32
2024-01-19T01:55:25.680Z,-15.66
2024-01-19T01:56:25.647Z,-15.87
2024-01-19T01:57:25.641Z,-15.96
2024-01-19T01:58:25.638Z,-15.77
2024-01-19T01:59:25.659Z,-15.56
2024-01-19T02:00:25.623Z,-15.43
2024-01-19T02:01:25.627Z,-15.38
2024-01-19T02:02:25.580Z,-15.37
2024-01-19T02:03:25.594Z,-15.34
2024-01-19T02:04:25.568Z,-15.37
2024-01-19T02:05:25.629Z,-15.37
2024-01-19T02:06:25.650Z,-15.32
2024-01-19T02:07:25.760Z,-15.24
2024-01-19T02:08:25.669Z,-15.19
2024-01-19T02:09:25.535Z,-14.97
2024-01-19T02:10:25.550Z,-14.93
2024-01-19T02:11:25.529Z,-15.10
2024-01-19T02:12:25.509Z,-15.50
2024-01-19T02:13:25.494Z,-15.64
2024-01-19T02:14:25.493Z,-15.65
2024-01-19T02:15:25.482Z,-15.64
2024-01-19T02:16:25.473Z,-15.55
2024-01-19T02:17:25.641Z,-15.45
2024-01-19T02:18:25.652Z,-15.37
2024-01-19T02:19:25.475Z,-15.20
2024-01-19T02:20:25.446Z,-15.05
2024-01-19T02:21:25.440Z,-15.14
2024-01-19T02:22:25.431Z,-15.14
2024-01-19T02:23:25.411Z,-15.14
2024-01-19T02:24:25.391Z,-15.10
2024-01-19T02:25:25.387Z,-15.04
2024-01-19T02:26:25.395Z,-14.87
2024-01-19T02:27:25.358Z,-14.72
2024-01-19T02:28:25.363Z,-14.66
2024-01-19T02:29:25.344Z,-14.63
2024-01-19T02:30:25.339Z,-14.62
2024-01-19T02:31:25.369Z,-14.51
2024-01-19T02:32:25.361Z,-14.38
2024-01-19T02:33:25.356Z,-14.21
2024-01-19T02:34:25.346Z,-14.05
2024-01-19T02:35:25.314Z,-13.96
2024-01-19T02:36:25.310Z,-14.13
2024-01-19T02:37:25.284Z,-14.17
2024-01-19T02:38:25.273Z,-14.17
2024-01-19T02:39:25.247Z,-14.13
2024-01-19T02:40:25.272Z,-14.15
2024-01-19T02:41:25.250Z,-14.09
2024-01-19T02:42:25.226Z,-13.98
2024-01-19T02:43:25.234Z,-13.88
2024-01-19T02:44:25.221Z,-13.75
2024-01-19T02:45:25.215Z,-13.63
2024-01-19T02:46:25.199Z,-13.56
2024-01-19T02:47:25.264Z,-13.49
2024-01-19T02:48:25.234Z,-13.43
2024-01-19T02:49:25.220Z,-13.34
2024-01-19T02:50:25.210Z,-13.11
2024-01-19T02:51:25.143Z,-13.00
2024-01-19T02:52:25.139Z,-13.00
2024-01-19T02:53:25.158Z,-13.28
2024-01-19T02:54:25.125Z,-13.37
2024-01-19T02:55:25.097Z,-13.46
2024-01-19T02:56:25.141Z,-13.64
2024-01-19T02:57:25.080Z,-13.74
2024-01-19T02:58:25.085Z,-13.78
2024-01-19T02:59:25.099Z,-13.78
2024-01-19T03:00:25.078Z,-13.77
2024-01-19T03:01:25.041Z,-13.74
2024-01-19T03:02:25.070Z,-13.71
2024-01-19T03:03:25.042Z,-13.62
2024-01-19T03:04:25.335Z,-13.59
2024-01-19T03:05:25.084Z,-13.52
2024-01-19T03:06:25.053Z,-13.49
2024-01-19T03:07:25.006Z,-13.51
2024-01-19T03:08:25.583Z,-13.46
2024-01-19T03:09:24.972Z,-13.53
2024-01-19T03:10:24.964Z,-13.55
2024-01-19T03:11:24.994Z,-13.66
2024-01-19T03:12:25.634Z,-13.73
2024-01-19T03:13:24.948Z,-13.75
2024-01-19T03:14:24.950Z,-13.86
2024-01-19T03:15:24.916Z,-13.89
2024-01-19T03:16:24.910Z,-13.95
2024-01-19T03:17:24.983Z,-14.02
2024-01-19T03:18:24.943Z,-14.03
2024-01-19T03:19:24.916Z,-14.16
2024-01-19T03:20:24.896Z,-14.39
2024-01-19T03:21:24.864Z,-14.52
2024-01-19T03:22:24.893Z,-14.60
2024-01-19T03:23:24.889Z,-14.54
2024-01-19T03:24:24.852Z,-14.44
2024-01-19T03:25:24.832Z,-14.34
2024-01-19T03:26:24.860Z,-14.30
2024-01-19T03:27:24.823Z,-14.21
2024-01-19T03:28:24.847Z,-14.12
2024-01-19T03:29:24.842Z,-14.17
2024-01-19T03:30:24.788Z,-14.28
2024-01-19T03:31:24.845Z,-14.42
2024-01-19T03:32:24.788Z,-14.69
2024-01-19T03:33:24.815Z,-14.93
2024-01-19T03:34:24.779Z,-15.23
2024-01-19T03:35:24.777Z,-15.24
2024-01-19T03:36:24.748Z,-15.32
2024-01-19T03:37:24.744Z,-15.45
2024-01-19T03:38:24.778Z,-15.52
2024-01-19T03:39:24.712Z,-15.65
2024-01-19T03:40:24.720Z,-15.76
2024-01-19T03:41:24.746Z,-15.90
2024-01-19T03:42:24.726Z,-16.06
2024-01-19T03:43:24.698Z,-16.06
2024-01-19T03:44:24.675Z,-16.12
2024-01-19T03:45:24.661Z,-16.11
2024-01-19T03:46:24.656Z,-15.98
2024-01-19T03:47:24.738Z,-15.86
2024-01-19T03:48:24.683Z,-15.74
2024-01-19T03:49:24.678Z,-15.74
2024-01-19T03:50:24.640Z,-15.76
2024-01-19T03:51:24.609Z,-15.61
2024-01-19T03:52:24.633Z,-15.52
2024-01-19T03:53:24.597Z,-15.41
2024-01-19T03:54:24.582Z,-15.27
2024-01-19T03:55:24.581Z,-15.05
2024-01-19T03:56:24.576Z,-14.89
2024-01-19T03:57:24.527Z,-14.59
2024-01-19T03:58:24.536Z,-14.45
2024-01-19T03:59:24.586Z,-14.30
2024-01-19T04:00:24.507Z,-14.17
2024-01-19T04:01:24.514Z,-14.09
2024-01-19T04:02:24.506Z,-14.05
2024-01-19T04:03:24.610Z,-13.92
2024-01-19T04:04:24.624Z,-13.78
2024-01-19T04:05:24.580Z,-13.73
2024-01-19T04:06:24.527Z,-13.64
2024-01-19T04:07:24.477Z,-13.53
2024-01-19T04:08:24.492Z,-13.13
2024-01-19T04:09:24.509Z,-12.53
2024-01-19T04:10:24.439Z,-11.67
2024-01-19T04:11:24.465Z,-11.14
2024-01-19T04:12:24.397Z,-10.57
2024-01-19T04:13:24.404Z,-9.92
2024-01-19T04:14:24.413Z,-9.69
2024-01-19T04:15:24.387Z,-9.44
2024-01-19T04:16:24.400Z,-9.33
2024-01-19T04:17:24.518Z,-9.41
2024-01-19T04:18:24.474Z,-9.48
2024-01-19T04:19:24.372Z,-9.46
2024-01-19T04:20:24.376Z,-9.39
2024-01-19T04:21:24.330Z,-9.20
2024-01-19T04:22:24.359Z,-8.93
2024-01-19T04:23:24.330Z,-8.64
2024-01-19T04:24:24.292Z,-8.31
2024-01-19T04:25:24.301Z,-8.10
2024-01-19T04:26:24.332Z,-7.97
2024-01-19T04:27:24.283Z,-7.83
2024-01-19T04:28:24.256Z,-7.68
2024-01-19T04:29:24.275Z,-7.56
2024-01-19T04:30:24.237Z,-7.47
2024-01-19T04:31:24.239Z,-7.42
2024-01-19T04:32:24.358Z,-7.35
2024-01-19T04:33:24.308Z,-7.32
2024-01-19T04:34:24.283Z,-7.33
2024-01-19T04:35:24.232Z,-7.40
2024-01-19T04:36:24.214Z,-7.47
2024-01-19T04:37:24.191Z,-7.52
2024-01-19T04:38:24.175Z,-7.54
2024-01-19T04:39:24.158Z,-7.56
2024-01-19T04:40:24.181Z,-7.53
2024-01-19T04:41:24.174Z,-7.53
2024-01-19T04:42:24.132Z,-7.49
2024-01-19T04:43:24.132Z,-7.47
2024-01-19T04:44:24.135Z,-7.43
2024-01-19T04:45:24.098Z,-7.42
2024-01-19T04:46:24.129Z,-7.44
2024-01-19T04:47:24.144Z,-7.49
2024-01-19T04:48:24.224Z,-7.47
2024-01-19T04:49:24.084Z,-7.49
2024-01-19T04:50:24.140Z,-7.32
2024-01-19T04:51:24.092Z,-7.25
2024-01-19T04:52:24.043Z,-7.14
2024-01-19T04:53:24.126Z,-7.00
2024-01-19T04:54:24.023Z,-6.86
2024-01-19T04:55:24.030Z,-6.74
2024-01-19T04:56:24.051Z,-6.66
2024-01-19T04:57:24.016Z,-6.60
2024-01-19T04:58:23.990Z,-6.58
2024-01-19T04:59:24.027Z,-6.58
2024-01-19T05:00:24.003Z,-6.61
2024-01-19T05:01:23.967Z,-6.58
2024-01-19T05:02:23.970Z,-6.61
2024-01-19T05:03:23.966Z,-6.61
2024-01-19T05:04:24.017Z,-6.60
2024-01-19T05:05:24.006Z,-6.56
2024-01-19T05:06:24.023Z,-6.58
2024-01-19T05:07:23.903Z,-6.58
2024-01-19T05:08:23.933Z,-6.63
2024-01-19T05:09:23.904Z,-6.66
2024-01-19T05:10:23.874Z,-6.65
2024-01-19T05:11:23.891Z,-6.74
2024-01-19T05:12:23.863Z,-6.74
2024-01-19T05:13:23.856Z,-6.75
2024-01-19T05:14:23.918Z,-6.71
2024-01-19T05:15:23.915Z,-6.71
2024-01-19T05:16:23.861Z,-6.76
2024-01-19T05:17:23.948Z,-6.81
2024-01-19T05:18:23.924Z,-6.83
2024-01-19T05:19:23.836Z,-6.81
2024-01-19T05:20:23.846Z,-6.84
2024-01-19T05:21:23.809Z,-6.81
2024-01-19T05:22:23.780Z,-6.86
2024-01-19T05:23:23.777Z,-6.84
2024-01-19T05:24:23.754Z,-6.84
2024-01-19T05:25:23.730Z,-6.84
2024-01-19T05:26:23.778Z,-6.89
2024-01-19T05:27:23.725Z,-6.87
2024-01-19T05:28:23.735Z,-6.89
2024-01-19T05:29:23.744Z,-6.87
2024-01-19T05:30:23.692Z,-6.83
2024-01-19T05:31:23.746Z,-6.93
2024-01-19T05:32:23.741Z,-7.00
2024-01-19T05:33:23.764Z,-7.10
2024-01-19T05:34:23.826Z,-7.11
2024-01-19T05:35:23.648Z,-7.17
2024-01-19T05:36:23.643Z,-7.14
2024-01-19T05:37:23.653Z,-7.11
2024-01-19T05:38:23.663Z,-7.13
2024-01-19T05:39:23.608Z,-7.18
2024-01-19T05:40:23.606Z,-7.14
2024-01-19T05:41:23.694Z,-7.13
2024-01-19T05:42:23.597Z,-6.97
2024-01-19T05:43:23.632Z,-6.90
2024-01-19T05:44:23.677Z,-6.86
2024-01-19T05:45:23.547Z,-6.75
2024-01-19T05:46:23.580Z,-6.76
2024-01-19T05:47:23.671Z,-6.69
2024-01-19T05:48:23.737Z,-6.65
2024-01-19T05:49:23.556Z,-6.54
2024-01-19T05:50:23.529Z,-6.54
2024-01-19T05:51:23.530Z,-6.53
2024-01-19T05:52:23.502Z,-6.50
2024-01-19T05:53:23.539Z,-6.58
2024-01-19T05:54:23.471Z,-6.56
2024-01-19T05:55:23.483Z,-6.58
2024-01-19T05:56:23.507Z,-6.58
2024-01-19T05:57:23.445Z,-6.58
2024-01-19T05:58:23.443Z,-6.60
2024-01-19T05:59:23.509Z,-6.58
2024-01-19T06:00:23.503Z,-6.60
2024-01-19T06:01:23.473Z,-6.53
2024-01-19T06:02:23.433Z,-6.54
2024-01-19T06:03:23.504Z,-6.53
2024-01-19T06:04:23.419Z,-6.50
2024-01-19T06:05:23.508Z,-6.50
2024-01-19T06:06:23.560Z,-6.53
2024-01-19T06:07:23.359Z,-6.56
2024-01-19T06:08:23.361Z,-6.61
2024-01-19T06:09:23.341Z,-6.66
2024-01-19T06:10:23.394Z,-6.68
2024-01-19T06:11:23.328Z,-6.68
2024-01-19T06:12:23.354Z,-6.66
2024-01-19T06:13:23.305Z,-6.61
2024-01-19T06:14:23.319Z,-6.47
2024-01-19T06:15:23.310Z,-6.41
2024-01-19T06:16:23.275Z,-6.38
2024-01-19T06:17:23.315Z,-6.39
2024-01-19T06:18:23.392Z,-6.36
2024-01-19T06:19:23.290Z,-6.39
2024-01-19T06:20:23.264Z,-6.42
2024-01-19T06:21:23.210Z,-6.41
2024-01-19T06:22:23.220Z,-6.38
2024-01-19T06:23:23.202Z,-6.35
2024-01-19T06:24:23.197Z,-6.31
2024-01-19T06:25:23.187Z,-6.11
2024-01-19T06:26:23.253Z,-5.93
2024-01-19T06:27:23.211Z,-5.79
2024-01-19T06:28:23.157Z,-5.74
2024-01-19T06:29:23.180Z,-5.67
2024-01-19T06:30:23.124Z,-5.63
2024-01-19T06:31:23.155Z,-5.61
2024-01-19T06:32:23.126Z,-5.58
2024-01-19T06:33:23.680Z,-5.63
2024-01-19T06:34:23.103Z,-5.64
2024-01-19T06:35:23.135Z,-5.58
2024-01-19T06:36:23.665Z,-5.57
2024-01-19T06:37:23.099Z,-5.54
2024-01-19T06:38:23.126Z,-5.49
2024-01-19T06:39:23.148Z,-5.46
2024-01-19T06:40:23.036Z,-5.43
2024-01-19T06:41:23.064Z,-5.42
2024-01-19T06:42:23.191Z,-5.36
2024-01-19T06:43:23.602Z,-5.39
2024-01-19T06:44:22.990Z,-5.38
2024-01-19T06:45:23.044Z,-5.42
2024-01-19T06:46:22.911Z,-5.42
2024-01-19T06:47:23.003Z,-5.40
2024-01-19T06:48:23.097Z,-5.39
2024-01-19T06:49:22.996Z,-5.42
2024-01-19T06:50:22.926Z,-5.46
2024-01-19T06:51:22.920Z,-5.49
2024-01-19T06:52:22.873Z,-5.53
2024-01-19T06:53:22.933Z,-5.49
2024-01-19T06:54:22.847Z,-5.53
2024-01-19T06:55:22.911Z,-5.54
2024-01-19T06:56:22.880Z,-5.47
2024-01-19T06:57:22.827Z,-5.40
2024-01-19T06:58:22.841Z,-5.36
2024-01-19T06:59:22.908Z,-5.36
2024-01-19T07:00:22.975Z,-5.33
2024-01-19T07:01:22.888Z,-5.31
2024-01-19T07:02:22.798Z,-5.31
2024-01-19T07:03:22.772Z,-5.31
2024-01-19T07:04:22.845Z,-5.35
2024-01-19T07:05:22.854Z,-5.33
2024-01-19T07:06:23.057Z,-5.31
2024-01-19T07:07:22.774Z,-5.33
2024-01-19T07:08:22.882Z,-5.33
2024-01-19T07:09:22.730Z,-5.33
2024-01-19T07:10:22.881Z,-5.31
2024-01-19T07:11:23.324Z,-5.27
2024-01-19T07:12:22.670Z,-5.22
2024-01-19T07:13:22.660Z,-5.22
2024-01-19T07:14:22.662Z,-5.19
2024-01-19T07:15:22.654Z,-5.18
2024-01-19T07:16:22.635Z,-5.21
2024-01-19T07:17:22.660Z,-5.17
2024-01-19T07:18:22.635Z,-5.10
2024-01-19T07:19:22.665Z,-5.18
2024-01-19T07:20:22.695Z,-5.13
2024-01-19T07:21:22.564Z,-5.09
2024-01-19T07:22:22.562Z,-5.08
2024-01-19T07:23:22.576Z,-5.05
2024-01-19T07:24:22.930Z,-5.03
2024-01-19T07:25:22.552Z,-5.03
2024-01-19T07:26:22.542Z,-4.99
2024-01-19T07:27:22.533Z,-5.00
2024-01-19T07:28:22.547Z,-5.05
2024-01-19T07:29:22.549Z,-5.06
2024-01-19T07:30:22.533Z,-5.08
2024-01-19T07:31:22.479Z,-5.08
2024-01-19T07:32:22.503Z,-5.06
2024-01-19T07:33:28.908Z,-5.10
2024-01-19T07:34:22.546Z,-5.13
2024-01-19T07:35:22.708Z,-5.08
2024-01-19T07:36:22.439Z,-5.08
2024-01-19T07:37:22.523Z,-5.06
2024-01-19T07:38:22.469Z,-5.00
2024-01-19T07:39:22.412Z,-5.02
2024-01-19T07:40:22.464Z,-4.98
2024-01-19T07:41:22.493Z,-4.96
2024-01-19T07:42:22.363Z,-4.89
2024-01-19T07:43:22.387Z,-4.88
2024-01-19T07:44:22.374Z,-4.91
2024-01-19T07:45:22.380Z,-4.88
2024-01-19T07:46:22.635Z,-4.87
2024-01-19T07:47:22.374Z,-4.87
2024-01-19T07:48:22.421Z,-4.85
2024-01-19T07:49:22.411Z,-4.78
2024-01-19T07:50:22.335Z,-4.82
2024-01-19T07:51:22.301Z,-4.82
2024-01-19T07:52:22.286Z,-4.82
2024-01-19T07:53:22.322Z,-4.84
2024-01-19T07:54:22.269Z,-4.87
2024-01-19T07:55:22.282Z,-4.88
2024-01-19T07:56:22.272Z,-4.88
2024-01-19T07:57:22.248Z,-4.91
2024-01-19T07:58:22.207Z,-4.89
2024-01-19T07:59:22.294Z,-4.95
2024-01-19T08:00:22.243Z,-4.92
2024-01-19T08:01:22.206Z,-4.95
2024-01-19T08:02:22.334Z,-4.89
2024-01-19T08:03:22.194Z,-4.88
2024-01-19T08:04:22.148Z,-4.82
2024-01-19T08:05:22.212Z,-4.78
2024-01-19T08:06:22.236Z,-4.81
2024-01-19T08:07:22.169Z,-4.78
2024-01-19T08:08:22.186Z,-4.79
2024-01-19T08:09:22.122Z,-4.81
2024-01-19T08:10:22.097Z,-4.70
2024-01-19T08:11:22.197Z,-4.57
2024-01-19T08:12:22.091Z,-4.49
2024-01-19T08:13:22.166Z,-4.50
2024-01-19T08:14:22.094Z,-4.52
2024-01-19T08:15:22.048Z,-4.59
2024-01-19T08:16:22.066Z,-4.63
2024-01-19T08:17:22.042Z,-4.66
2024-01-19T08:18:22.186Z,-4.73
2024-01-19T08:19:22.133Z,-4.71
2024-01-19T08:20:22.041Z,-4.67
2024-01-19T08:21:22.022Z,-4.63
2024-01-19T08:22:21.966Z,-4.59
2024-01-19T08:23:22.064Z,-4.53
2024-01-19T08:24:21.949Z,-4.50
2024-01-19T08:25:21.988Z,-4.46
2024-01-19T08:26:21.945Z,-4.42
2024-01-19T08:27:21.942Z,-4.42
2024-01-19T08:28:21.911Z,-4.42
2024-01-19T08:29:21.910Z,-4.38
2024-01-19T08:30:21.973Z,-4.35
2024-01-19T08:31:21.889Z,-4.34
2024-01-19T08:32:21.888Z,-4.30
2024-01-19T08:33:21.919Z,-4.28
2024-01-19T08:34:21.946Z,-4.28
2024-01-19T08:35:21.875Z,-4.25
2024-01-19T08:36:21.832Z,-4.20
2024-01-19T08:37:21.843Z,-4.17
2024-01-19T08:38:21.836Z,-4.20
2024-01-19T08:39:21.848Z,-4.16
2024-01-19T08:40:21.800Z,-4.17
2024-01-19T08:41:21.814Z,-4.13
2024-01-19T08:42:21.778Z,-4.12
2024-01-19T08:43:21.770Z,-4.10
2024-01-19T08:44:21.785Z,-4.12
2024-01-19T08:45:21.816Z,-4.09
2024-01-19T08:46:21.742Z,-4.10
2024-01-19T08:47:21.738Z,-4.09
2024-01-19T08:48:21.860Z,-4.10
2024-01-19T08:49:21.755Z,-4.07
2024-01-19T08:50:21.710Z,-4.04
2024-01-19T08:51:21.797Z,-4.06
2024-01-19T08:52:21.669Z,-4.04
2024-01-19T08:53:21.717Z,-4.02
2024-01-19T08:54:21.653Z,-3.95
2024-01-19T08:55:21.656Z,-3.92
2024-01-19T08:56:21.634Z,-3.89
2024-01-19T08:57:21.736Z,-3.85
2024-01-19T08:58:21.646Z,-3.82
2024-01-19T08:59:21.682Z,-3.77
2024-01-19T09:00:21.596Z,-3.78
2024-01-19T09:01:21.611Z,-3.70
2024-01-19T09:02:23.748Z,-3.72
2024-01-19T09:03:21.660Z,-3.66
2024-01-19T09:04:21.704Z,-3.59
2024-01-19T09:05:21.626Z,-3.56
2024-01-19T09:06:21.748Z,-3.54
2024-01-19T09:07:21.769Z,-3.55
2024-01-19T09:08:21.545Z,-3.51
2024-01-19T09:09:21.511Z,-3.46
2024-01-19T09:10:21.524Z,-3.44
2024-01-19T09:11:21.490Z,-3.37
2024-01-19T09:12:21.487Z,-3.35
2024-01-19T09:13:21.494Z,-3.30
2024-01-19T09:14:21.450Z,-3.22
2024-01-19T09:15:21.464Z,-3.17
2024-01-19T09:16:21.457Z,-3.16
2024-01-19T09:17:21.445Z,-3.17
2024-01-19T09:18:21.453Z,-3.22
2024-01-19T09:19:21.424Z,-3.23
2024-01-19T09:20:21.400Z,-3.23
2024-01-19T09:21:21.467Z,-3.27
2024-01-19T09:22:21.369Z,-3.27
2024-01-19T09:23:21.411Z,-3.23
2024-01-19T09:24:21.365Z,-3.19
2024-01-19T09:25:21.352Z,-3.20
2024-01-19T09:26:21.365Z,-3.22
2024-01-19T09:27:21.329Z,-3.20
2024-01-19T09:28:21.328Z,-3.17
2024-01-19T09:29:21.317Z,-3.17
2024-01-19T09:30:21.377Z,-3.16
2024-01-19T09:31:21.321Z,-3.09
2024-01-19T09:32:21.351Z,-3.06
2024-01-19T09:33:21.441Z,-2.95
2024-01-19T09:34:21.342Z,-2.94
2024-01-19T09:35:21.273Z,-2.98
2024-01-19T09:36:21.329Z,-2.97
2024-01-19T09:37:21.256Z,-2.92
2024-01-19T09:38:21.256Z,-2.88
2024-01-19T09:39:21.224Z,-2.80
2024-01-19T09:40:21.257Z,-2.71
2024-01-19T09:41:21.192Z,-2.71
2024-01-19T09:42:21.186Z,-2.71
2024-01-19T09:43:21.176Z,-2.66
2024-01-19T09:44:21.318Z,-2.65
2024-01-19T09:45:21.174Z,-2.60
2024-01-19T09:46:21.157Z,-2.56
2024-01-19T09:47:21.232Z,-2.45
2024-01-19T09:48:21.218Z,-2.38
2024-01-19T09:49:21.167Z,-2.30
2024-01-19T09:50:21.113Z,-2.26
2024-01-19T09:51:21.229Z,-2.21
2024-01-19T09:52:22.712Z,-2.26
2024-01-19T09:53:21.090Z,-2.34
2024-01-19T09:54:21.153Z,-2.40
2024-01-19T09:55:21.059Z,-2.40
2024-01-19T09:56:21.052Z,-2.44
2024-01-19T09:57:21.054Z,-2.42
2024-01-19T09:58:21.118Z,-2.37
2024-01-19T09:59:21.048Z,-2.37
2024-01-19T10:00:21.047Z,-2.35
2024-01-19T10:01:21.061Z,-2.38
2024-01-19T10:02:21.016Z,-2.47
2024-01-19T10:03:21.053Z,-2.44
2024-01-19T10:04:20.983Z,-2.44
2024-01-19T10:05:21.063Z,-2.41
2024-01-19T10:06:21.049Z,-2.32
2024-01-19T10:07:20.970Z,-2.28
2024-01-19T10:08:20.962Z,-2.35
2024-01-19T10:09:20.943Z,-2.38
2024-01-19T10:10:20.913Z,-2.42
2024-01-19T10:11:20.917Z,-2.34
2024-01-19T10:12:20.938Z,-2.30
2024-01-19T10:13:20.900Z,-2.28
2024-01-19T10:14:20.869Z,-2.30
2024-01-19T10:15:20.925Z,-2.22
2024-01-19T10:16:20.858Z,-2.21
2024-01-19T10:17:20.916Z,-2.16
2024-01-19T10:18:20.931Z,-2.12
2024-01-19T10:19:20.925Z,-2.12
2024-01-19T10:20:20.860Z,-2.19
2024-01-19T10:21:20.827Z,-2.28
2024-01-19T10:22:20.813Z,-2.26
2024-01-19T10:23:21.214Z,-2.38
2024-01-19T10:24:20.925Z,-2.35
2024-01-19T10:25:20.765Z,-2.37
2024-01-19T10:26:21.522Z,-2.35
2024-01-19T10:27:20.774Z,-2.34
2024-01-19T10:28:20.733Z,-2.28
2024-01-19T10:29:20.760Z,-2.30
2024-01-19T10:30:20.747Z,-2.30
2024-01-19T10:31:20.786Z,-2.28
2024-01-19T10:32:20.717Z,-2.34
2024-01-19T10:33:20.798Z,-2.28
2024-01-19T10:34:20.987Z,-2.30
2024-01-19T10:35:20.667Z,-2.28
2024-01-19T10:36:20.719Z,-2.26
2024-01-19T10:37:20.693Z,-2.34
2024-01-19T10:38:20.784Z,-2.25
2024-01-19T10:39:20.648Z,-2.23
2024-01-19T10:40:20.695Z,-2.23
2024-01-19T10:41:20.650Z,-2.21
2024-01-19T10:42:20.605Z,-2.16
2024-01-19T10:43:20.622Z,-2.21
2024-01-19T10:44:20.587Z,-2.18
2024-01-19T10:45:20.598Z,-2.08
2024-01-19T10:46:20.577Z,-2.08
2024-01-19T10:47:20.579Z,-1.98
2024-01-19T10:48:20.600Z,-2.00
2024-01-19T10:49:20.631Z,-2.01
2024-01-19T10:50:21.009Z,-2.04
2024-01-19T10:51:20.580Z,-2.04
2024-01-19T10:52:20.519Z,-2.02
2024-01-19T10:53:20.513Z,-2.02
2024-01-19T10:54:20.504Z,-1.95
2024-01-19T10:55:20.532Z,-1.94
2024-01-19T10:56:20.475Z,-1.94
2024-01-19T10:57:20.541Z,-1.97
2024-01-19T10:58:20.448Z,-1.97
2024-01-19T10:59:20.452Z,-1.92
2024-01-19T11:00:20.431Z,-1.83
2024-01-19T11:01:20.516Z,-1.82
2024-01-19T11:02:20.488Z,-1.80
2024-01-19T11:03:20.467Z,-1.77
2024-01-19T11:04:20.399Z,-1.71
2024-01-19T11:05:20.382Z,-1.76
2024-01-19T11:06:20.427Z,-1.72
2024-01-19T11:07:20.482Z,-1.66
2024-01-19T11:08:20.377Z,-1.64
2024-01-19T11:09:20.354Z,-1.62
2024-01-19T11:10:20.327Z,-1.58
2024-01-19T11:11:20.318Z,-1.50
2024-01-19T11:12:20.319Z,-1.46
2024-01-19T11:13:20.330Z,-1.44
2024-01-19T11:14:20.311Z,-1.46
2024-01-19T11:15:20.276Z,-1.50
2024-01-19T11:16:20.273Z,-1.43
2024-01-19T11:17:20.267Z,-1.43
2024-01-19T11:18:20.342Z,-1.33
2024-01-19T11:19:20.351Z,-1.37
2024-01-19T11:20:20.228Z,-1.40
2024-01-19T11:21:20.224Z,-1.43
2024-01-19T11:22:20.220Z,-1.43
2024-01-19T11:23:20.224Z,-1.38
2024-01-19T11:24:20.216Z,-1.38
2024-01-19T11:25:20.185Z,-1.32
2024-01-19T11:26:20.193Z,-1.30
2024-01-19T11:27:20.172Z,-1.27
2024-01-19T11:28:20.157Z,-1.22
2024-01-19T11:29:20.711Z,-1.09
2024-01-19T11:30:20.131Z,-1.07
2024-01-19T11:31:20.114Z,-1.12
2024-01-19T11:32:20.131Z,-1.09
2024-01-19T11:33:20.220Z,-1.05
2024-01-19T11:34:23.042Z,-1.01
2024-01-19T11:35:20.080Z,-0.99
2024-01-19T11:36:20.170Z,-1.01
2024-01-19T11:37:20.069Z,-1.05
2024-01-19T11:38:20.065Z,-0.97
2024-01-19T11:39:20.033Z,-0.96
2024-01-19T11:40:20.028Z,-0.85
2024-01-19T11:41:20.034Z,-0.78
2024-01-19T11:42:20.006Z,-0.75
2024-01-19T11:43:19.990Z,-0.71
2024-01-19T11:44:19.998Z,-0.68
2024-01-19T11:45:19.989Z,-0.61
2024-01-19T11:46:19.984Z,-0.52
2024-01-19T11:47:19.953Z,-0.52
2024-01-19T11:48:19.985Z,-0.50
2024-01-19T11:49:20.015Z,-0.38
2024-01-19T11:50:19.971Z,-0.38
2024-01-19T11:51:19.941Z,-0.32
2024-01-19T11:52:19.901Z,-0.26
2024-01-19T11:53:19.905Z,-0.32
2024-01-19T11:54:19.885Z,-0.35
2024-01-19T11:55:19.875Z,-0.35
2024-01-19T11:56:19.938Z,-0.28
2024-01-19T11:57:20.067Z,-0.13
2024-01-19T11:58:19.854Z,-0.06
2024-01-19T11:59:19.846Z,0.07
2024-01-19T12:00:19.900Z,0.22
2024-01-19T12:01:19.833Z,0.32
2024-01-19T12:02:19.819Z,0.73
2024-01-19T12:03:19.838Z,1.10
2024-01-19T12:04:20.237Z,0.87
2024-01-19T12:05:19.802Z,0.74
2024-01-19T12:06:19.819Z,0.68
2024-01-19T12:07:19.911Z,0.69
2024-01-19T12:08:19.784Z,0.62
2024-01-19T12:09:21.170Z,0.49
2024-01-19T12:10:19.728Z,0.29
2024-01-19T12:11:19.722Z,0.21
2024-01-19T12:12:19.703Z,0.11
2024-01-19T12:13:19.705Z,0.08
2024-01-19T12:14:19.738Z,0.12
2024-01-19T12:15:19.718Z,0.08
2024-01-19T12:16:19.662Z,0.05
2024-01-19T12:17:19.669Z,0.16
2024-01-19T12:18:19.691Z,0.18
2024-01-19T12:19:19.816Z,0.08
2024-01-19T12:20:20.073Z,0.05
2024-01-19T12:21:19.620Z,0.01
2024-01-19T12:22:19.603Z,0.10
2024-01-19T12:23:19.653Z,0.21
2024-01-19T12:24:19.617Z,0.43
2024-01-19T12:25:19.599Z,0.49
2024-01-19T12:26:19.570Z,0.56
2024-01-19T12:27:19.552Z,0.44
2024-01-19T12:28:19.569Z,0.55
2024-01-19T12:29:19.530Z,0.84
2024-01-19T12:30:19.576Z,0.59
2024-01-19T12:31:19.556Z,0.36
2024-01-19T12:32:19.602Z,0.12
2024-01-19T12:33:19.752Z,0.11
2024-01-19T12:34:19.510Z,0.19
2024-01-19T12:35:19.624Z,0.11
2024-01-19T12:36:19.488Z,0.01
2024-01-19T12:37:19.464Z,-0.07
2024-01-19T12:38:19.479Z,-0.03
2024-01-19T12:39:19.494Z,0.15
2024-01-19T12:40:19.453Z,1.23
2024-01-19T12:41:19.463Z,2.28
2024-01-19T12:42:19.437Z,2.69
2024-01-19T12:43:19.391Z,2.62
2024-01-19T12:44:19.393Z,2.74
2024-01-19T12:45:19.510Z,3.10
2024-01-19T12:46:20.348Z,3.31